Time;durP1;ratioP1;P1;durP2;ratioP2;P2;SDS_P1;SDS_P2;PMS_P1;PMS_P2;Temp;Humidity;BMP_temperature;BMP_pressure;BME280_temperature;BME280_humidity;BME280_pressure;Samples;Min_cycle;Max_cycle;Signal;HPM_P1;HPM_P2
2021/01/01 07:05:06;;;;;;;28.93;27.03;;;4.40;99.90;;;;;;5929718;23;20474;-75
2021/01/01 07:07:43;;;;;;;28.27;26.77;;;4.40;99.90;;;;;;5011121;28;20447;-74
2021/01/01 07:10:14;;;;;;;29.10;27.30;;;4.20;99.90;;;;;;5020252;28;20449;-74
2021/01/01 07:12:41;;;;;;;28.20;26.43;;;4.20;99.90;;;;;;5013516;28;20454;-74
2021/01/01 07:15:33;;;;;;;28.37;26.63;;;4.20;99.90;;;;;;5011658;28;20465;-74
2021/01/01 07:18:00;;;;;;;28.20;26.30;;;4.20;99.90;;;;;;5025088;28;20478;-75
2021/01/01 07:20:27;;;;;;;28.43;26.73;;;4.20;99.90;;;;;;5030054;28;20519;-74
2021/01/01 07:22:58;;;;;;;26.93;25.23;;;4.30;99.90;;;;;;5027174;28;20452;-74
2021/01/01 07:25:37;;;;;;;28.23;26.47;;;4.20;99.90;;;;;;5019402;28;20448;-75
2021/01/01 07:28:08;;;;;;;26.57;25.10;;;4.30;99.90;;;;;;5012378;28;20827;-74
2021/01/01 07:30:35;;;;;;;28.63;27.03;;;4.40;99.90;;;;;;5010953;28;20462;-75
2021/01/01 07:33:02;;;;;;;26.87;25.20;;;4.40;99.90;;;;;;5011999;28;20463;-75
2021/01/01 07:35:30;;;;;;;27.07;25.37;;;4.40;99.90;;;;;;5011219;28;20459;-75
2021/01/01 07:37:58;;;;;;;27.60;25.90;;;4.40;99.90;;;;;;5011652;28;20580;-74
2021/01/01 07:40:25;;;;;;;27.67;26.17;;;4.30;99.90;;;;;;5010735;28;20913;-75
2021/01/01 07:42:53;;;;;;;28.87;27.00;;;4.40;99.90;;;;;;5011320;28;20445;-76
2021/01/01 07:45:19;;;;;;;28.33;26.70;;;4.40;99.90;;;;;;5011791;28;20460;-75
2021/01/01 07:47:46;;;;;;;29.03;27.23;;;4.50;99.90;;;;;;5011361;28;20452;-75
2021/01/01 07:50:17;;;;;;;29.60;27.80;;;4.40;99.90;;;;;;5010451;28;20451;-75
2021/01/01 07:52:45;;;;;;;28.53;26.73;;;4.40;99.90;;;;;;5010386;28;20769;-74
2021/01/01 07:55:12;;;;;;;26.97;25.37;;;4.30;99.90;;;;;;5010354;28;20825;-75
2021/01/01 07:57:39;;;;;;;27.43;25.93;;;4.40;99.90;;;;;;5010413;28;20520;-74
2021/01/01 08:00:07;;;;;;;28.47;26.73;;;4.50;99.90;;;;;;5010411;28;21090;-74
2021/01/01 08:02:33;;;;;;;29.07;27.47;;;4.50;99.90;;;;;;5010397;28;20447;-73
2021/01/01 08:05:02;;;;;;;27.50;26.00;;;4.60;99.90;;;;;;5023887;28;20496;-75
2021/01/01 08:07:28;;;;;;;27.70;26.10;;;4.60;99.90;;;;;;5029131;28;20448;-73
2021/01/01 08:09:55;;;;;;;28.70;27.20;;;4.70;99.90;;;;;;5028500;28;20854;-73
2021/01/01 08:12:22;;;;;;;27.33;25.83;;;4.70;99.90;;;;;;5029095;28;20439;-73
2021/01/01 08:14:49;;;;;;;27.23;25.77;;;4.60;99.90;;;;;;5028502;28;20445;-74
2021/01/01 08:17:20;;;;;;;26.40;25.00;;;4.70;99.90;;;;;;5026069;28;20450;-73
2021/01/01 08:19:46;;;;;;;26.83;25.33;;;4.60;99.90;;;;;;5029825;28;20491;-73
2021/01/01 08:22:17;;;;;;;26.70;25.30;;;4.60;99.90;;;;;;5029520;28;20450;-73
2021/01/01 08:24:47;;;;;;;26.40;24.97;;;4.60;99.90;;;;;;5029901;28;20470;-74
2021/01/01 08:27:14;;;;;;;24.27;23.07;;;4.60;99.90;;;;;;5029797;28;20454;-73
2021/01/01 08:29:42;;;;;;;25.57;24.10;;;4.60;99.90;;;;;;5030337;28;20456;-74
2021/01/01 08:32:08;;;;;;;24.73;23.50;;;4.50;99.90;;;;;;5033512;28;20457;-74
2021/01/01 08:34:35;;;;;;;24.03;22.73;;;4.50;99.90;;;;;;5033732;28;20464;-74
2021/01/01 08:37:03;;;;;;;24.23;23.03;;;4.60;99.90;;;;;;5032417;28;20461;-73
2021/01/01 08:39:29;;;;;;;24.23;22.93;;;4.80;99.90;;;;;;5032086;28;20484;-74
2021/01/01 08:41:57;;;;;;;23.50;22.17;;;4.80;99.90;;;;;;5032110;28;20454;-74
2021/01/01 08:44:25;;;;;;;21.90;20.80;;;4.90;99.90;;;;;;5027004;28;20931;-75
2021/01/01 08:46:58;;;;;;;20.90;19.80;;;5.00;99.90;;;;;;5032188;28;20482;-75
2021/01/01 08:49:25;;;;;;;21.40;20.20;;;4.90;99.90;;;;;;5027308;28;20475;-75
2021/01/01 08:51:51;;;;;;;18.97;18.07;;;4.90;99.90;;;;;;5031986;28;20809;-75
2021/01/01 08:54:24;;;;;;;20.27;19.17;;;5.00;99.90;;;;;;5032001;28;20454;-77
2021/01/01 08:56:58;;;;;;;20.90;19.50;;;5.10;99.90;;;;;;5032208;28;20447;-75
2021/01/01 08:59:25;;;;;;;19.63;18.53;;;4.90;99.90;;;;;;5027188;28;20574;-75
2021/01/01 09:01:52;;;;;;;19.87;18.67;;;4.80;99.90;;;;;;5031624;28;20459;-76
2021/01/01 09:04:19;;;;;;;16.17;15.30;;;4.80;99.90;;;;;;5031740;28;20461;-75
2021/01/01 09:06:57;;;;;;;18.07;17.07;;;4.60;99.90;;;;;;5031493;28;20527;-75
2021/01/01 09:09:28;;;;;;;17.83;16.83;;;4.60;99.90;;;;;;5026401;28;20449;-75
2021/01/01 09:12:13;;;;;;;18.33;17.23;;;4.80;99.90;;;;;;5031659;28;20803;-75
2021/01/01 09:14:58;;;;;;;17.20;16.30;;;4.90;99.90;;;;;;5032810;28;20461;-75
2021/01/01 09:17:26;;;;;;;18.50;17.30;;;5.10;99.90;;;;;;5033029;28;20817;-75
2021/01/01 09:20:04;;;;;;;17.67;16.77;;;5.20;99.90;;;;;;5032890;28;20488;-74
2021/01/01 09:22:34;;;;;;;16.70;15.70;;;5.20;99.90;;;;;;5031692;28;20443;-75
2021/01/01 09:25:19;;;;;;;17.13;16.23;;;5.10;99.90;;;;;;5031181;28;20448;-74
2021/01/01 09:27:45;;;;;;;16.17;15.27;;;5.10;99.90;;;;;;5026297;28;20447;-74
2021/01/01 09:30:15;;;;;;;16.93;15.87;;;5.10;99.90;;;;;;5031317;28;20441;-75
2021/01/01 09:32:43;;;;;;;15.60;14.80;;;5.10;99.90;;;;;;5030973;28;20516;-75
2021/01/01 09:35:11;;;;;;;16.33;15.27;;;5.10;99.90;;;;;;5030734;28;20443;-75
2021/01/01 09:37:37;;;;;;;16.40;15.37;;;5.20;99.90;;;;;;5031041;28;21046;-75
2021/01/01 09:40:04;;;;;;;16.40;15.40;;;5.30;99.90;;;;;;5025563;28;20531;-74
2021/01/01 09:42:30;;;;;;;15.90;15.10;;;5.30;99.90;;;;;;5029999;28;20449;-75
2021/01/01 09:44:57;;;;;;;15.70;14.87;;;5.30;99.90;;;;;;5030740;28;20455;-75
2021/01/01 09:47:24;;;;;;;15.30;14.60;;;5.40;99.90;;;;;;5030813;28;20443;-74
2021/01/01 09:49:50;;;;;;;15.77;14.87;;;5.50;99.90;;;;;;5030445;28;20477;-75
2021/01/01 09:52:16;;;;;;;14.87;13.97;;;5.50;99.90;;;;;;5030716;28;20449;-74
2021/01/01 09:54:42;;;;;;;14.67;13.87;;;5.50;99.90;;;;;;5030629;28;20506;-74
2021/01/01 09:57:08;;;;;;;15.37;14.47;;;5.50;99.90;;;;;;5030785;28;20510;-75
2021/01/01 09:59:35;;;;;;;15.70;14.77;;;5.30;99.90;;;;;;5030551;28;20479;-74
2021/01/01 10:02:01;;;;;;;15.57;14.57;;;5.50;99.90;;;;;;5030062;28;20961;-74
2021/01/01 10:04:28;;;;;;;15.67;14.77;;;5.90;99.90;;;;;;5030360;28;20615;-74
2021/01/01 10:06:54;;;;;;;15.13;14.23;;;6.20;99.90;;;;;;5031009;28;20468;-75
2021/01/01 10:09:20;;;;;;;15.37;14.57;;;6.40;99.90;;;;;;5030970;28;20452;-75
2021/01/01 10:11:48;;;;;;;14.53;13.73;;;6.30;99.90;;;;;;5030963;28;20822;-75
2021/01/01 10:14:14;;;;;;;14.13;13.33;;;6.60;99.90;;;;;;5030546;28;20448;-75
2021/01/01 10:16:41;;;;;;;14.47;13.67;;;6.70;99.90;;;;;;5030111;28;20448;-74
2021/01/01 10:19:07;;;;;;;15.27;14.40;;;6.70;99.90;;;;;;5030375;28;20525;-75
2021/01/01 10:21:34;;;;;;;14.80;13.97;;;6.60;99.90;;;;;;5030551;28;20453;-75
2021/01/01 10:24:00;;;;;;;14.80;14.00;;;6.60;99.90;;;;;;5029835;28;20453;-75
2021/01/01 10:26:26;;;;;;;14.30;13.40;;;6.60;99.90;;;;;;5030009;28;20456;-75
2021/01/01 10:28:52;;;;;;;13.47;12.80;;;7.00;99.90;;;;;;5030194;28;20918;-75
2021/01/01 10:31:22;;;;;;;13.30;12.60;;;7.10;99.90;;;;;;5030018;28;20830;-75
2021/01/01 10:33:48;;;;;;;12.50;11.80;;;7.30;99.90;;;;;;5029952;28;21023;-76
2021/01/01 10:36:14;;;;;;;13.47;12.73;;;7.00;99.90;;;;;;5029604;28;20453;-75
2021/01/01 10:38:42;;;;;;;15.67;14.77;;;7.10;99.90;;;;;;5029774;28;20992;-76
2021/01/01 10:41:11;;;;;;;13.37;12.60;;;7.30;99.90;;;;;;5029763;28;20445;-75
2021/01/01 10:43:38;;;;;;;13.40;12.50;;;7.40;99.90;;;;;;5030016;28;20453;-75
2021/01/01 10:46:04;;;;;;;13.07;12.20;;;7.30;99.90;;;;;;5029763;28;20817;-75
2021/01/01 10:48:30;;;;;;;13.10;12.30;;;6.80;99.90;;;;;;5029728;28;20449;-75
2021/01/01 10:50:59;;;;;;;13.13;12.43;;;7.00;99.90;;;;;;5030059;28;20445;-76
2021/01/01 10:53:25;;;;;;;12.33;11.63;;;7.30;99.90;;;;;;5030094;28;20464;-75
2021/01/01 10:55:52;;;;;;;11.70;11.20;;;7.30;99.90;;;;;;5031152;28;20457;-75
2021/01/01 10:58:23;;;;;;;13.07;12.37;;;7.20;99.90;;;;;;5030916;28;20453;-75
2021/01/01 11:00:51;;;;;;;12.20;11.60;;;7.10;99.90;;;;;;5030998;28;20588;-75
2021/01/01 11:03:17;;;;;;;11.33;10.80;;;7.00;99.90;;;;;;5029731;28;20480;-75
2021/01/01 11:05:43;;;;;;;11.83;11.23;;;7.10;99.90;;;;;;5029304;28;20742;-75
2021/01/01 11:08:09;;;;;;;12.00;11.40;;;7.20;99.90;;;;;;5029400;28;20445;-75
2021/01/01 11:10:35;;;;;;;12.53;11.83;;;7.40;99.90;;;;;;5029363;28;20452;-75
2021/01/01 11:13:04;;;;;;;12.07;11.47;;;7.50;99.90;;;;;;5029285;28;20514;-75
2021/01/01 12:27:20;;;;;;;12.57;11.90;;;7.30;99.90;;;;;;4994129;28;20492;-78
2021/01/01 12:29:46;;;;;;;13.27;12.63;;;7.40;99.90;;;;;;4994442;28;20509;-78
2021/01/01 12:32:14;;;;;;;11.67;11.03;;;7.40;99.90;;;;;;4994060;28;20470;-78
2021/01/01 12:34:42;;;;;;;13.27;12.57;;;7.40;99.90;;;;;;5026051;28;20461;-79
2021/01/01 12:37:08;;;;;;;11.30;10.73;;;7.20;99.90;;;;;;5032369;28;20441;-78
2021/01/01 12:39:34;;;;;;;12.20;11.60;;;7.20;99.90;;;;;;5032071;28;20993;-78
2021/01/01 12:42:02;;;;;;;12.53;11.90;;;7.10;99.90;;;;;;5031702;28;20494;-78
2021/01/01 12:44:28;;;;;;;12.10;11.50;;;7.20;99.90;;;;;;5031913;28;20518;-78
2021/01/01 12:46:54;;;;;;;12.13;11.53;;;7.00;99.90;;;;;;5032388;28;20441;-78
2021/01/01 12:49:20;;;;;;;13.10;12.10;;;6.80;99.90;;;;;;5032015;28;20437;-77
2021/01/01 12:51:48;;;;;;;12.27;11.67;;;6.70;99.90;;;;;;5031912;28;20445;-79
2021/01/01 12:54:14;;;;;;;13.13;12.43;;;6.70;99.90;;;;;;5031568;28;20725;-78
2021/01/01 12:56:40;;;;;;;12.50;11.70;;;6.70;99.90;;;;;;5031671;28;20491;-79
2021/01/01 12:59:06;;;;;;;12.50;11.73;;;6.70;99.90;;;;;;5031957;28;20484;-79
2021/01/01 13:01:33;;;;;;;11.63;11.03;;;6.70;99.90;;;;;;5031606;28;20441;-79
2021/01/01 13:03:59;;;;;;;11.50;10.90;;;6.60;99.90;;;;;;5026179;28;20461;-78
2021/01/01 13:06:25;;;;;;;12.20;11.40;;;6.40;99.90;;;;;;5030861;28;20893;-79
2021/01/01 13:08:52;;;;;;;10.80;10.20;;;6.40;99.90;;;;;;5031799;28;20453;-79
2021/01/01 13:11:19;;;;;;;11.83;11.13;;;6.50;99.90;;;;;;5026823;28;20453;-78
2021/01/01 13:13:46;;;;;;;11.37;10.67;;;6.50;99.90;;;;;;5032728;28;20829;-77
2021/01/01 13:16:12;;;;;;;12.57;11.87;;;6.60;99.90;;;;;;5031365;28;20437;-78
2021/01/01 13:18:40;;;;;;;13.17;12.37;;;6.50;99.90;;;;;;5032795;28;20459;-78
2021/01/01 13:21:07;;;;;;;12.23;11.40;;;6.60;99.90;;;;;;5032568;28;20457;-78
2021/01/01 13:23:37;;;;;;;12.73;11.73;;;6.70;99.90;;;;;;5032665;28;20922;-79
2021/01/01 13:26:04;;;;;;;11.97;11.27;;;6.70;99.90;;;;;;5032752;28;20817;-79
2021/01/01 13:28:31;;;;;;;13.03;11.73;;;6.60;99.90;;;;;;5032441;28;20445;-79
2021/01/01 13:30:57;;;;;;;12.27;11.63;;;6.60;99.90;;;;;;5032561;28;20452;-79
2021/01/01 13:33:23;;;;;;;12.97;12.13;;;6.90;99.90;;;;;;5033278;28;20445;-80
2021/01/01 13:35:51;;;;;;;13.80;12.97;;;6.80;99.90;;;;;;5034023;28;20449;-81
2021/01/01 13:38:18;;;;;;;13.47;12.60;;;6.80;99.90;;;;;;5033099;28;20981;-80
2021/01/01 13:40:45;;;;;;;13.67;12.87;;;7.00;99.90;;;;;;5032823;28;20485;-81
2021/01/01 13:43:12;;;;;;;13.90;13.03;;;7.00;99.90;;;;;;5034126;28;20503;-81
2021/01/01 13:45:40;;;;;;;15.03;13.93;;;7.20;99.90;;;;;;5034237;28;20449;-83
2021/01/01 13:48:07;;;;;;;14.67;13.47;;;7.10;99.90;;;;;;5035606;28;20441;-81
2021/01/01 13:50:33;;;;;;;14.17;13.20;;;7.00;99.90;;;;;;5034089;28;20601;-81
2021/01/01 13:53:00;;;;;;;15.03;14.13;;;6.90;99.90;;;;;;5036228;28;20866;-82
2021/01/01 13:55:26;;;;;;;14.60;13.60;;;6.60;99.90;;;;;;5032678;28;20511;-83
2021/01/01 13:57:53;;;;;;;14.80;13.80;;;6.70;99.90;;;;;;5033410;28;20445;-83
2021/01/01 14:00:21;;;;;;;14.43;13.53;;;6.90;99.90;;;;;;5033619;28;20893;-82
2021/01/01 14:02:47;;;;;;;14.57;13.60;;;7.00;99.90;;;;;;5032591;28;20449;-83
2021/01/01 14:05:14;;;;;;;14.87;13.97;;;7.00;99.90;;;;;;5033293;28;21129;-83
2021/01/01 14:07:40;;;;;;;14.03;13.23;;;7.10;99.90;;;;;;5031793;28;20449;-85
2021/01/01 14:10:07;;;;;;;14.90;13.90;;;7.30;99.90;;;;;;5032036;28;20851;-83
2021/01/01 14:12:36;;;;;;;14.80;13.80;;;7.50;99.90;;;;;;5031910;28;20453;-83
2021/01/01 14:15:02;;;;;;;14.53;13.43;;;7.50;99.90;;;;;;5032662;28;20449;-82
2021/01/01 14:17:29;;;;;;;14.23;13.33;;;7.50;99.90;;;;;;5032380;28;20453;-82
2021/01/01 14:19:55;;;;;;;14.70;13.80;;;7.50;99.90;;;;;;5031653;28;20513;-82
2021/01/01 14:22:21;;;;;;;14.80;13.80;;;7.20;99.90;;;;;;5032891;28;20947;-81
2021/01/01 14:24:48;;;;;;;14.60;13.60;;;6.90;99.90;;;;;;5043631;28;20434;-82
2021/01/01 14:27:14;;;;;;;14.63;13.63;;;6.90;99.90;;;;;;5056929;28;20437;-80
2021/01/01 14:29:40;;;;;;;15.47;14.37;;;6.70;99.90;;;;;;5048059;28;20449;-82
2021/01/01 14:32:06;;;;;;;14.07;13.10;;;6.60;99.90;;;;;;5036504;28;20771;-82
2021/01/01 14:34:33;;;;;;;14.80;13.80;;;6.60;99.90;;;;;;5034158;28;20469;-82
2021/01/01 14:37:00;;;;;;;14.73;13.83;;;6.50;99.90;;;;;;5032817;28;20456;-82
2021/01/01 14:39:27;;;;;;;14.90;13.80;;;6.30;99.90;;;;;;5031539;28;20488;-80
2021/01/01 14:41:54;;;;;;;15.00;13.80;;;6.20;99.90;;;;;;5031445;28;20457;-81
2021/01/01 14:44:20;;;;;;;14.10;13.30;;;6.00;99.90;;;;;;5031515;28;20812;-80
2021/01/01 14:46:47;;;;;;;14.07;13.17;;;5.90;99.90;;;;;;5031110;28;20518;-81
2021/01/01 14:49:13;;;;;;;15.03;14.03;;;5.60;99.90;;;;;;5031066;28;20483;-81
2021/01/01 14:51:41;;;;;;;15.20;14.07;;;5.40;99.90;;;;;;5031203;28;20445;-81
2021/01/01 14:54:08;;;;;;;15.57;14.57;;;5.20;99.90;;;;;;5031085;28;20519;-82
2021/01/01 14:56:35;;;;;;;15.70;14.47;;;5.20;99.90;;;;;;5031243;28;20458;-81
2021/01/01 14:59:01;;;;;;;17.00;15.80;;;5.00;99.90;;;;;;5031032;28;20590;-83
2021/01/01 15:01:31;;;;;;;15.23;14.20;;;4.90;99.90;;;;;;5031434;28;20452;-82
2021/01/01 15:03:57;;;;;;;15.50;14.10;;;4.70;99.90;;;;;;5030684;28;21067;-82
2021/01/01 15:06:23;;;;;;;15.23;14.07;;;4.50;99.90;;;;;;5030663;28;20501;-84
2021/01/01 15:08:51;;;;;;;16.47;15.17;;;4.50;99.90;;;;;;5031079;28;20466;-82
2021/01/01 15:11:17;;;;;;;16.90;15.40;;;4.40;99.90;;;;;;5030883;28;20882;-82
2021/01/01 15:13:44;;;;;;;15.37;14.20;;;4.20;99.90;;;;;;5030580;28;20929;-82
2021/01/01 15:16:10;;;;;;;16.40;15.03;;;4.10;99.90;;;;;;5030685;28;20513;-83
2021/01/01 15:18:36;;;;;;;17.77;16.17;;;4.10;99.90;;;;;;5030633;28;20853;-82
2021/01/01 15:21:03;;;;;;;16.97;15.40;;;4.20;99.90;;;;;;5030383;28;20482;-83
2021/01/01 15:23:29;;;;;;;17.67;16.37;;;4.30;99.90;;;;;;5030528;28;20464;-82
2021/01/01 15:25:56;;;;;;;17.50;16.23;;;4.40;99.90;;;;;;5030505;28;20457;-81
2021/01/01 15:28:23;;;;;;;16.07;14.87;;;4.50;99.90;;;;;;5030652;28;20458;-82
2021/01/01 15:30:49;;;;;;;17.43;16.00;;;4.50;99.90;;;;;;5030823;28;20449;-83
2021/01/01 15:33:15;;;;;;;16.93;15.60;;;4.40;99.90;;;;;;5030792;28;20832;-83
2021/01/01 15:35:41;;;;;;;16.60;15.27;;;4.40;99.90;;;;;;5030408;28;20971;-83
2021/01/01 15:38:08;;;;;;;16.90;15.60;;;4.30;99.90;;;;;;5030280;28;20462;-83
2021/01/01 15:40:34;;;;;;;17.53;16.00;;;4.30;99.90;;;;;;5029827;28;21067;-83
2021/01/01 15:43:01;;;;;;;19.00;17.13;;;4.30;99.90;;;;;;5030765;28;20518;-83
2021/01/01 15:45:27;;;;;;;19.10;17.50;;;4.20;99.90;;;;;;5030468;28;20442;-82
2021/01/01 15:47:53;;;;;;;18.07;16.43;;;4.20;99.90;;;;;;5030336;28;20465;-83
2021/01/01 15:50:20;;;;;;;20.27;18.40;;;4.10;99.90;;;;;;5030807;28;20454;-84
2021/01/01 15:52:46;;;;;;;19.70;18.00;;;3.90;99.90;;;;;;5030172;28;20819;-82
2021/01/01 15:55:12;;;;;;;17.07;15.47;;;3.90;99.90;;;;;;5030348;28;20457;-82
2021/01/01 15:57:39;;;;;;;18.17;16.50;;;3.70;99.90;;;;;;5029999;28;20457;-83
2021/01/01 16:00:09;;;;;;;32.30;26.63;;;3.70;99.90;;;;;;5030282;28;20488;-83
2021/01/01 16:02:36;;;;;;;42.20;32.43;;;3.50;99.90;;;;;;5030257;28;20459;-82
2021/01/01 16:05:02;;;;;;;56.40;38.03;;;3.50;99.90;;;;;;5029528;28;20487;-83
2021/01/01 16:07:28;;;;;;;58.77;41.60;;;3.40;99.90;;;;;;5030450;28;20442;-81
2021/01/01 16:09:55;;;;;;;51.20;35.03;;;3.20;99.90;;;;;;5030304;28;20457;-83
2021/01/01 16:12:21;;;;;;;18.40;16.70;;;3.10;99.90;;;;;;5030403;28;20436;-86
2021/01/01 16:14:47;;;;;;;29.50;24.00;;;3.00;99.90;;;;;;5030788;28;20457;-81
2021/01/01 16:17:14;;;;;;;26.67;23.77;;;2.90;99.90;;;;;;5030017;28;20459;-82
2021/01/01 16:19:40;;;;;;;35.77;29.40;;;2.80;99.90;;;;;;5029748;28;20491;-82
2021/01/01 16:22:07;;;;;;;32.97;27.40;;;2.70;99.90;;;;;;5030420;28;20460;-81
2021/01/01 16:24:33;;;;;;;36.90;27.87;;;2.50;99.90;;;;;;5030098;28;20476;-82
2021/01/01 16:26:59;;;;;;;27.20;24.30;;;2.40;99.90;;;;;;5030245;28;20896;-81
2021/01/01 16:29:25;;;;;;;31.70;23.33;;;2.50;99.90;;;;;;5030033;28;20453;-81
2021/01/01 16:31:52;;;;;;;27.57;23.70;;;2.40;99.90;;;;;;5030501;28;20455;-82
2021/01/01 16:34:20;;;;;;;26.30;22.90;;;2.40;99.90;;;;;;5030705;28;20915;-81
2021/01/01 16:36:47;;;;;;;25.70;23.00;;;2.40;99.90;;;;;;5029634;28;20482;-81
2021/01/01 16:39:14;;;;;;;25.90;22.50;;;2.30;99.90;;;;;;5029422;28;20868;-81
2021/01/01 16:41:41;;;;;;;27.93;23.00;;;2.30;99.90;;;;;;5029678;28;20451;-83
2021/01/01 16:44:10;;;;;;;27.17;23.50;;;2.30;99.90;;;;;;5029617;28;20488;-82
2021/01/01 16:46:37;;;;;;;23.83;21.10;;;2.30;99.90;;;;;;5029605;28;20460;-82
2021/01/01 16:49:04;;;;;;;23.60;20.20;;;2.30;99.90;;;;;;5029772;28;20449;-82
2021/01/01 16:51:32;;;;;;;22.03;19.60;;;2.40;99.90;;;;;;5029798;28;20452;-82
2021/01/01 16:53:58;;;;;;;20.40;18.20;;;2.30;99.90;;;;;;5033085;28;20493;-82
2021/01/01 16:56:25;;;;;;;24.13;20.50;;;2.20;99.90;;;;;;5032443;28;20943;-83
2021/01/01 16:58:51;;;;;;;20.60;18.70;;;2.10;99.90;;;;;;5033380;28;20453;-83
2021/01/01 17:01:18;;;;;;;19.97;17.97;;;2.00;99.90;;;;;;5033243;28;20480;-82
2021/01/01 17:03:44;;;;;;;19.10;17.50;;;2.00;99.90;;;;;;5035586;28;20826;-80
2021/01/01 17:06:17;;;;;;;20.00;17.87;;;2.10;99.90;;;;;;5034600;28;20491;-84
2021/01/01 17:08:44;;;;;;;20.07;18.13;;;2.10;99.90;;;;;;5033393;28;20456;-81
2021/01/01 17:11:11;;;;;;;18.53;16.83;;;2.10;99.90;;;;;;5032736;28;21257;-81
2021/01/01 17:13:37;;;;;;;21.93;19.80;;;2.00;99.90;;;;;;5032819;28;20497;-80
2021/01/01 17:16:03;;;;;;;19.97;18.37;;;2.10;99.90;;;;;;5032499;28;20456;-81
2021/01/01 17:18:30;;;;;;;20.70;18.70;;;2.10;99.90;;;;;;5032551;28;20448;-81
2021/01/01 17:20:56;;;;;;;20.07;18.17;;;2.10;99.90;;;;;;5031856;28;21332;-81
2021/01/01 17:23:22;;;;;;;20.47;18.67;;;2.10;99.90;;;;;;5032622;28;20810;-81
2021/01/01 17:25:49;;;;;;;22.20;20.17;;;2.10;99.90;;;;;;5032342;28;20452;-82
2021/01/01 17:28:15;;;;;;;22.60;20.20;;;1.90;99.90;;;;;;5032367;28;20451;-81
2021/01/01 17:30:41;;;;;;;21.23;19.13;;;2.00;99.90;;;;;;5032162;28;21000;-81
2021/01/01 17:33:08;;;;;;;22.10;19.80;;;2.00;99.90;;;;;;5032068;28;20460;-81
2021/01/01 17:35:34;;;;;;;23.30;20.90;;;1.90;99.90;;;;;;5032399;28;20446;-80
2021/01/01 17:38:00;;;;;;;22.57;20.53;;;1.90;99.90;;;;;;5032168;28;20457;-80
2021/01/01 17:40:26;;;;;;;20.47;18.60;;;1.80;99.90;;;;;;5031866;28;20490;-78
2021/01/01 17:42:53;;;;;;;22.23;20.23;;;1.90;99.90;;;;;;5031889;28;20453;-79
2021/01/01 17:45:20;;;;;;;21.87;19.87;;;1.90;99.90;;;;;;5032205;28;20456;-79
2021/01/01 17:47:46;;;;;;;21.27;19.07;;;1.80;99.90;;;;;;5031885;28;20810;-78
2021/01/01 17:50:12;;;;;;;23.37;21.00;;;1.70;99.90;;;;;;5031746;28;20866;-80
2021/01/01 17:52:39;;;;;;;23.20;21.07;;;1.70;99.90;;;;;;5031799;28;20509;-78
2021/01/01 17:55:07;;;;;;;22.27;20.17;;;1.60;99.90;;;;;;5031843;28;20888;-79
2021/01/01 17:57:33;;;;;;;24.03;21.73;;;1.70;99.90;;;;;;5031899;28;20465;-79
2021/01/01 18:00:00;;;;;;;24.23;21.90;;;1.70;99.90;;;;;;5030816;28;20490;-79
2021/01/01 18:02:32;;;;;;;26.77;22.00;;;1.70;99.90;;;;;;5030804;28;20456;-78
2021/01/01 18:04:58;;;;;;;22.70;19.83;;;1.80;99.90;;;;;;5030866;28;20530;-77
2021/01/01 18:07:24;;;;;;;22.40;20.10;;;1.90;99.90;;;;;;5031097;28;20490;-78
2021/01/01 18:09:50;;;;;;;24.70;22.30;;;1.90;99.90;;;;;;5031020;28;20452;-77
2021/01/01 18:12:17;;;;;;;24.97;21.53;;;1.90;99.90;;;;;;5030462;28;20445;-77
2021/01/01 18:14:43;;;;;;;24.27;21.67;;;1.90;99.90;;;;;;5030944;28;20724;-77
2021/01/01 18:17:11;;;;;;;24.70;21.80;;;2.00;99.90;;;;;;5030973;28;20499;-76
2021/01/01 18:19:37;;;;;;;22.37;20.17;;;1.90;99.90;;;;;;5031353;28;20492;-76
2021/01/01 18:22:05;;;;;;;24.37;21.07;;;1.90;99.90;;;;;;5030794;28;20449;-76
2021/01/01 18:24:31;;;;;;;23.53;21.37;;;2.00;99.90;;;;;;5030918;28;20464;-77
2021/01/01 18:26:57;;;;;;;22.43;20.30;;;2.00;99.90;;;;;;5030699;28;20459;-77
2021/01/01 18:29:24;;;;;;;24.23;21.70;;;1.90;99.90;;;;;;5030776;28;20465;-77
2021/01/01 18:31:52;;;;;;;25.03;22.40;;;1.80;99.90;;;;;;5031082;28;20452;-77
2021/01/01 18:34:28;;;;;;;24.90;22.40;;;1.90;99.90;;;;;;5030663;28;20819;-78
2021/01/01 18:36:56;;;;;;;25.90;22.53;;;1.80;99.90;;;;;;5030623;28;20448;-79
2021/01/01 18:39:23;;;;;;;23.13;20.70;;;1.80;99.90;;;;;;5030579;28;20455;-78
2021/01/01 18:41:51;;;;;;;27.53;24.77;;;1.70;99.90;;;;;;5030596;28;20454;-77
2021/01/01 18:44:19;;;;;;;26.13;23.40;;;1.80;99.90;;;;;;5030646;28;20446;-78
2021/01/01 18:46:49;;;;;;;24.67;21.87;;;1.70;99.90;;;;;;5030055;28;20452;-77
2021/01/01 18:49:16;;;;;;;24.70;21.30;;;1.70;99.90;;;;;;5030327;28;20451;-78
2021/01/01 18:51:47;;;;;;;24.20;21.77;;;1.70;99.90;;;;;;5030209;28;20502;-76
2021/01/01 18:54:15;;;;;;;25.40;22.83;;;1.70;99.90;;;;;;5030417;28;20483;-78
2021/01/01 18:56:45;;;;;;;28.60;25.53;;;1.60;99.90;;;;;;5030131;28;20452;-77
2021/01/01 18:59:33;;;;;;;25.43;22.70;;;1.50;99.90;;;;;;5030335;28;20489;-77
2021/01/01 19:02:03;;;;;;;26.43;23.73;;;1.60;99.90;;;;;;5030168;28;20459;-77
2021/01/01 19:04:47;;;;;;;25.50;22.90;;;1.50;99.90;;;;;;5030163;28;20528;-77
2021/01/01 19:07:27;;;;;;;23.33;21.23;;;1.40;99.90;;;;;;5029795;28;20483;-77
2021/01/01 19:09:53;;;;;;;23.53;21.20;;;1.40;99.90;;;;;;5030025;28;20444;-76
2021/01/01 19:12:23;;;;;;;25.50;22.90;;;1.40;99.90;;;;;;5030609;28;20457;-76
2021/01/01 19:14:52;;;;;;;24.70;22.30;;;1.50;99.90;;;;;;5030487;28;20451;-76
2021/01/01 19:17:20;;;;;;;25.00;22.33;;;1.30;99.90;;;;;;5030130;28;20483;-77
2021/01/01 19:19:48;;;;;;;26.93;24.23;;;1.20;99.90;;;;;;5029570;28;20936;-76
2021/01/01 19:22:25;;;;;;;27.10;22.77;;;1.20;99.90;;;;;;5030053;28;20453;-76
2021/01/01 19:24:55;;;;;;;25.87;23.37;;;1.30;99.90;;;;;;5029704;28;20501;-77
2021/01/01 19:27:45;;;;;;;26.13;23.80;;;1.10;99.90;;;;;;5029915;28;20845;-77
2021/01/01 19:30:17;;;;;;;25.07;22.37;;;1.20;99.90;;;;;;5029845;28;20445;-77
2021/01/01 19:33:34;;;;;;;25.70;23.17;;;1.10;99.90;;;;;;5029727;28;20453;-76
2021/01/01 19:36:28;;;;;;;27.10;24.63;;;1.00;99.90;;;;;;5012603;28;20448;-76
2021/01/01 19:39:41;;;;;;;26.20;23.67;;;1.20;99.90;;;;;;5000115;28;20503;-76
2021/01/01 19:42:26;;;;;;;26.90;24.20;;;1.20;99.90;;;;;;5029547;28;20533;-76
2021/01/01 19:45:08;;;;;;;24.33;22.17;;;1.20;99.90;;;;;;5029629;28;20477;-77
2021/01/01 19:48:11;;;;;;;25.83;23.27;;;1.20;99.90;;;;;;5029691;28;20458;-77
2021/01/01 19:50:52;;;;;;;26.87;24.03;;;1.10;99.90;;;;;;4996595;28;20454;-77
2021/01/01 19:54:07;;;;;;;27.20;24.60;;;0.90;99.90;;;;;;5029710;28;20457;-77
2021/01/01 19:56:45;;;;;;;27.53;24.87;;;1.00;99.90;;;;;;5029915;28;20459;-79
2021/01/01 19:59:26;;;;;;;27.17;24.57;;;0.90;99.90;;;;;;5029740;28;20541;-78
2021/01/01 20:01:54;;;;;;;28.20;25.40;;;0.80;99.90;;;;;;5029675;28;20448;-78
2021/01/01 20:04:32;;;;;;;27.53;24.90;;;0.80;99.90;;;;;;5030243;28;20553;-77
2021/01/01 20:07:16;;;;;;;25.10;22.80;;;0.70;99.90;;;;;;5029137;28;20480;-78
2021/01/01 20:09:45;;;;;;;27.60;24.97;;;0.60;99.90;;;;;;5030153;28;20690;-77
2021/01/01 20:12:46;;;;;;;27.93;23.43;;;0.60;99.90;;;;;;5029718;28;20482;-77
2021/01/01 20:15:13;;;;;;;26.03;23.70;;;0.50;99.90;;;;;;5025350;28;20856;-77
2021/01/01 20:17:43;;;;;;;24.53;22.03;;;0.50;99.90;;;;;;5029306;28;20454;-77
2021/01/01 20:20:14;;;;;;;26.80;24.13;;;0.60;99.90;;;;;;5029307;28;21012;-77
2021/01/01 20:22:41;;;;;;;26.00;23.50;;;0.60;99.90;;;;;;5029145;28;20454;-77
2021/01/01 20:25:10;;;;;;;26.07;23.57;;;0.60;99.90;;;;;;5029052;28;20883;-77
2021/01/01 20:27:40;;;;;;;25.53;23.20;;;0.50;99.90;;;;;;5033134;28;20458;-76
2021/01/01 20:30:16;;;;;;;26.10;23.60;;;0.50;99.90;;;;;;5033431;28;20459;-76
2021/01/01 20:32:53;;;;;;;26.00;23.30;;;0.60;99.90;;;;;;5032879;28;20457;-76
2021/01/01 20:35:30;;;;;;;26.20;23.50;;;0.60;99.90;;;;;;5033168;28;20498;-77
2021/01/01 20:38:35;;;;;;;25.83;23.30;;;0.80;99.90;;;;;;5032859;28;20444;-76
2021/01/01 20:41:40;;;;;;;29.07;24.43;;;0.90;99.90;;;;;;5032796;28;20487;-76
2021/01/01 20:44:38;;;;;;;25.40;22.80;;;0.80;99.90;;;;;;5016271;28;20469;-77
2021/01/01 20:48:15;;;;;;;26.20;23.50;;;0.80;99.90;;;;;;5032837;28;20456;-76
2021/01/01 20:56:09;;;;;;;27.40;24.27;;;0.90;99.90;;;;;;5032896;28;20466;-78
2021/01/01 20:58:38;;;;;;;30.17;26.70;;;0.90;99.90;;;;;;5032555;28;20938;-77
2021/01/01 21:01:09;;;;;;;28.37;25.47;;;1.00;99.90;;;;;;5032754;28;20492;-77
2021/01/01 21:03:37;;;;;;;30.10;26.90;;;0.90;99.90;;;;;;5032818;28;20866;-78
2021/01/01 21:06:04;;;;;;;35.07;28.00;;;1.00;99.90;;;;;;5032502;28;20488;-76
2021/01/01 21:09:04;;;;;;;31.67;26.13;;;1.00;99.90;;;;;;5032711;28;20462;-76